This is the latest recevied weather packets stored in our database for station/object W3EJE-13. If no packets are shown the sender has not sent any weather packets the latest 1 day(s).
| Time | Temp. | Humidity | Pressure | Rain* | Wind** | Luminosity | Snow |
|---|---|---|---|---|---|---|---|
| 1836274803 | 16.67° C | 99% | 1022.7 hPa | 0 mm | 0 m/s | 0 W/m² | - |
| 1836274501 | 17.22° C | 99% | 1022.8 hPa | 0 mm | 0 m/s | 0 W/m² | - |
| 1836274354 | 16.67° C | 99% | 1022.7 hPa | 0 mm | 0 m/s | 0 W/m² | - |
| 1836274198 | 17.22° C | 99% | 1022.7 hPa | 0 mm | 0 m/s | 0 W/m² | - |
| 1836273892 | 16.67° C | 99% | 1022.6 hPa | 0 mm | 0 m/s | 0 W/m² | - |
| 1778042762 | 13.89° C | 84% | 1011.4 hPa | 0 mm | 0 m/s | 0 W/m² | - |
| 1778042458 | 13.89° C | 85% | 1011.1 hPa | 0 mm | 0 m/s | 0 W/m² | - |
| 1778042155 | 13.89° C | 85% | 1011.4 hPa | 0 mm | 0 m/s | 0 W/m² | - |
| 1778041854 | 14.44° C | 84% | 1011.5 hPa | 0 mm | 0 m/s | 0 W/m² | - |
| 1778041552 | 14.44° C | 83% | 1011.3 hPa | 0 mm | 0 m/s | 0 W/m² | - |
| 1778041250 | 13.89° C | 85% | 1011.7 hPa | 0 mm | 0 m/s | 0 W/m² | - |
| 1778040949 | 13.89° C | 86% | 1011.5 hPa | 0 mm | 0 m/s | 0 W/m² | - |
| 1778040645 | 13.89° C | 87% | 1011.6 hPa | 0 mm | 0 m/s | 0 W/m² | - |
| 1778040343 | 13.89° C | 87% | 1011.4 hPa | 0 mm | 0.45 m/s, 263° | 0 W/m² | - |
| 1778040038 | 13.89° C | 84% | 1011 hPa | 0 mm | 0 m/s | 0 W/m² | - |
| 1778039736 | 14.44° C | 84% | 1011.2 hPa | 0 mm | 0 m/s | 0 W/m² | - |
| 1778039432 | 14.44° C | 80% | 1011.3 hPa | 0 mm | 0 m/s | 0 W/m² | - |
| 1778039130 | 14.44° C | 80% | 1011.4 hPa | 0 mm | 0 m/s | 0 W/m² | - |
| 1778038826 | 14.44° C | 80% | 1011 hPa | 0 mm | 0 m/s | 0 W/m² | - |
| 1778038524 | 14.44° C | 81% | 1011.2 hPa | 0 mm | 0.45 m/s, 207° | 0 W/m² | - |
| 1778038221 | 14.44° C | 82% | 1011.5 hPa | 0 mm | 0 m/s | 0 W/m² | - |
| 1778037918 | 14.44° C | 82% | 1011.5 hPa | 0 mm | 0 m/s | 0 W/m² | - |
| 1778037615 | 14.44° C | 82% | 1011.2 hPa | 0 mm | 0 m/s | 0 W/m² | - |
| 1778037313 | 14.44° C | 81% | 1011.6 hPa | 0 mm | 0 m/s | 0 W/m² | - |
| 1778037009 | 13.89° C | 81% | 1011.6 hPa | 0 mm | 0 m/s | 0 W/m² | - |
* Rain latest hour (hover to see other rain measurements)
** Current wind speed in m/s (hover to see current wind gust speed)